Quartzsite, Arizona
Current Conditions -  °F | °C
As of 12:52 PM on Tuesday 21 Oct 2014 (Local Time) from KBLH Reporting Station
Clear Clear  
Wind Chill: 32°   Ceiling: Unl
Heat Index: 32°   Visibility: 10mi
Dew Point: 11°   Wind: 5mph
Humidity: 27%   Direction: NA
Pressure: 29.8"   Gusts: NA
Location:  33.67°N, 114.22°W
Report Text: KBLH 211952Z AUTO VRB04KT 10SM CLR 32/11 A2980 RMK AO2 SLP084 T03220111
Loading
Personal Weather Stations






























Interactive Weather Map
Tropical Storm Tracking
New forecast layout! Learn more

10-Day Weather Forecast

Advertisements
Track Severe Weather on mobile